createdAt,value
2018-02-09T00:01:28.756Z,86.40
2018-02-09T00:03:57.288Z,87.00
2018-02-09T00:06:25.728Z,86.50
2018-02-09T00:08:54.301Z,87.20
2018-02-09T00:11:22.784Z,86.80
2018-02-09T00:13:52.487Z,87.30
2018-02-09T00:16:21.889Z,88.00
2018-02-09T00:18:50.380Z,88.30
2018-02-09T00:21:19.780Z,88.30
2018-02-09T00:23:48.257Z,87.90
2018-02-09T00:26:16.839Z,88.10
2018-02-09T00:28:45.208Z,88.40
2018-02-09T00:31:28.055Z,88.00
2018-02-09T00:33:56.528Z,87.40
2018-02-09T00:36:41.330Z,86.70
2018-02-09T00:39:10.496Z,86.20
2018-02-09T00:41:52.713Z,86.10
2018-02-09T00:44:23.512Z,85.50
2018-02-09T00:47:04.741Z,85.40
2018-02-09T00:49:33.280Z,84.70
2018-02-09T00:52:01.671Z,83.60
2018-02-09T00:54:34.945Z,82.50
2018-02-09T00:57:05.164Z,81.50
2018-02-09T00:59:33.546Z,81.00
2018-02-09T01:02:02.031Z,81.10
2018-02-09T01:04:30.504Z,81.60
2018-02-09T01:06:58.959Z,82.00
2018-02-09T01:09:28.797Z,82.60
2018-02-09T01:11:57.339Z,82.60
2018-02-09T01:14:26.586Z,83.90
2018-02-09T01:16:55.466Z,83.90
2018-02-09T01:19:30.501Z,84.40
2018-02-09T01:21:59.153Z,85.60
2018-02-09T01:24:28.385Z,86.60
2018-02-09T01:26:57.990Z,86.40
2018-02-09T01:29:40.146Z,85.80
2018-02-09T01:32:08.674Z,85.70
2018-02-09T01:34:37.155Z,86.50
2018-02-09T01:37:05.645Z,85.80
2018-02-09T01:39:33.972Z,85.30
2018-02-09T01:42:02.545Z,85.70
2018-02-09T01:44:31.500Z,86.40
2018-02-09T01:46:59.972Z,86.30
2018-02-09T01:49:28.451Z,86.40
2018-02-09T01:51:56.834Z,87.20
2018-02-09T01:54:25.210Z,86.70
2018-02-09T01:56:54.732Z,86.70
2018-02-09T01:59:23.136Z,86.40
2018-02-09T02:01:51.679Z,86.10
2018-02-09T02:04:20.157Z,86.40
2018-02-09T02:06:48.839Z,86.00
2018-02-09T02:09:17.479Z,86.00
2018-02-09T02:11:53.900Z,85.90
2018-02-09T02:14:22.473Z,85.70
2018-02-09T02:16:51.161Z,85.70
2018-02-09T02:19:25.679Z,85.40
2018-02-09T02:22:01.192Z,84.90
2018-02-09T02:24:30.344Z,84.80
2018-02-09T02:27:08.433Z,84.10
2018-02-09T02:29:36.911Z,83.50
2018-02-09T02:32:05.491Z,82.40
2018-02-09T02:34:34.077Z,81.40
2018-02-09T02:37:05.013Z,80.70
2018-02-09T02:39:34.316Z,80.40
2018-02-09T02:42:14.874Z,80.30
2018-02-09T02:44:43.284Z,78.90
2018-02-09T02:47:11.850Z,77.70
2018-02-09T02:49:55.472Z,76.80
2018-02-09T02:52:23.958Z,76.10
2018-02-09T02:54:55.437Z,74.80
2018-02-09T02:57:26.244Z,73.90
2018-02-09T02:59:54.593Z,73.90
2018-02-09T03:02:23.921Z,73.10
2018-02-09T03:04:52.398Z,73.10
2018-02-09T03:07:47.084Z,72.50
2018-02-09T03:10:15.624Z,71.80
2018-02-09T03:12:44.875Z,71.80
2018-02-09T03:15:13.356Z,70.90
2018-02-09T03:17:41.838Z,71.20
2018-02-09T03:20:21.477Z,69.70
2018-02-09T03:22:49.964Z,69.80
2018-02-09T03:25:18.438Z,69.60
2018-02-09T03:27:47.027Z,69.60
2018-02-09T03:30:15.613Z,69.10
2018-02-09T03:32:50.131Z,67.80
2018-02-09T03:35:32.435Z,67.50
2018-02-09T03:38:00.981Z,66.50
2018-02-09T03:40:33.318Z,65.70
2018-02-09T03:43:01.809Z,66.20
2018-02-09T03:45:31.297Z,66.10
2018-02-09T03:47:59.762Z,65.00
2018-02-09T03:50:28.232Z,64.30
2018-02-09T03:53:04.043Z,64.60
2018-02-09T03:55:32.567Z,63.80
2018-02-09T03:58:02.070Z,63.90
2018-02-09T04:00:32.503Z,64.00
2018-02-09T04:03:00.965Z,63.80
2018-02-09T04:05:29.460Z,63.00
2018-02-09T04:07:57.945Z,62.30
2018-02-09T04:10:26.432Z,62.00
2018-02-09T04:12:55.010Z,61.80
2018-02-09T04:15:23.564Z,60.80
2018-02-09T04:17:52.891Z,60.00
2018-02-09T04:20:21.367Z,60.00
2018-02-09T04:23:03.481Z,59.50
2018-02-09T04:25:31.951Z,59.40
2018-02-09T04:28:00.465Z,59.10
2018-02-09T04:30:29.018Z,58.80
2018-02-09T04:32:57.500Z,58.60
2018-02-09T04:35:26.084Z,58.00
2018-02-09T04:37:55.180Z,56.70
2018-02-09T04:40:23.856Z,56.30
2018-02-09T04:42:52.341Z,55.50
2018-02-09T04:45:20.820Z,55.20
2018-02-09T04:47:50.322Z,55.20
2018-02-09T04:50:18.726Z,55.00
2018-02-09T04:52:47.667Z,54.90
2018-02-09T04:55:16.799Z,54.20
2018-02-09T04:57:46.093Z,54.10
2018-02-09T05:00:14.568Z,53.60
2018-02-09T05:02:43.052Z,53.40
2018-02-09T05:05:11.632Z,53.00
2018-02-09T05:07:41.550Z,53.00
2018-02-09T05:10:28.995Z,52.40
2018-02-09T05:12:57.584Z,52.20
2018-02-09T05:15:26.137Z,51.80
2018-02-09T05:17:54.537Z,52.10
2018-02-09T05:20:22.928Z,52.00
2018-02-09T05:23:06.025Z,52.40
2018-02-09T05:25:34.498Z,52.00
2018-02-09T05:28:02.986Z,52.10
2018-02-09T05:30:31.607Z,52.00
2018-02-09T05:33:15.400Z,52.60
2018-02-09T05:35:45.461Z,53.10
2018-02-09T05:38:14.004Z,52.80
2018-02-09T05:40:46.378Z,53.60
2018-02-09T05:43:14.962Z,53.50
2018-02-09T05:45:43.383Z,54.00
2018-02-09T05:48:11.853Z,53.60
2018-02-09T05:50:41.041Z,54.10
2018-02-09T05:53:09.415Z,53.70
2018-02-09T05:55:38.703Z,54.00
2018-02-09T05:58:08.147Z,54.60
2018-02-09T06:00:38.213Z,55.40
2018-02-09T06:03:06.695Z,55.40
2018-02-09T06:05:35.056Z,55.30
2018-02-09T06:08:14.950Z,56.00
2018-02-09T06:10:43.618Z,56.00
2018-02-09T06:13:12.399Z,55.60
2018-02-09T06:15:44.361Z,55.80
2018-02-09T06:18:12.700Z,55.20
2018-02-09T06:20:42.984Z,55.10
2018-02-09T06:23:13.780Z,55.10
2018-02-09T06:25:42.685Z,55.40
2018-02-09T06:28:17.516Z,55.10
2018-02-09T06:30:48.478Z,55.50
2018-02-09T06:33:17.048Z,55.60
2018-02-09T06:35:58.670Z,54.90
2018-02-09T06:38:28.629Z,54.80
2018-02-09T06:40:57.239Z,55.30
2018-02-09T06:43:25.709Z,55.20
2018-02-09T06:45:54.291Z,55.30
2018-02-09T06:48:22.610Z,55.20
2018-02-09T06:50:51.967Z,55.40
2018-02-09T06:53:20.453Z,55.40
2018-02-09T06:55:48.882Z,55.20
2018-02-09T06:58:27.242Z,55.90
2018-02-09T07:00:55.717Z,56.00
2018-02-09T07:03:24.196Z,56.20
2018-02-09T07:05:52.782Z,56.00
2018-02-09T07:08:21.204Z,55.60
2018-02-09T07:10:49.759Z,55.60
2018-02-09T07:13:18.579Z,55.70
2018-02-09T07:15:47.262Z,56.20
2018-02-09T07:18:20.634Z,56.40
2018-02-09T07:20:49.150Z,56.50
2018-02-09T07:23:18.402Z,71.00
2018-02-09T07:25:46.877Z,70.20
2018-02-09T07:28:15.418Z,68.20
2018-02-09T07:30:44.612Z,65.70
2018-02-09T07:33:13.442Z,64.90
2018-02-09T07:35:43.975Z,65.40
2018-02-09T07:38:12.558Z,65.40
2018-02-09T07:40:40.914Z,64.20
2018-02-09T07:43:10.018Z,62.40
2018-02-09T07:45:45.184Z,62.40
2018-02-09T07:48:13.671Z,61.50
2018-02-09T07:50:42.129Z,60.80
2018-02-09T07:53:10.715Z,59.90
2018-02-09T07:55:39.150Z,58.10
2018-02-09T07:58:09.313Z,56.90
2018-02-09T08:00:45.305Z,56.90
2018-02-09T08:03:13.709Z,55.10
2018-02-09T08:05:43.044Z,52.80
2018-02-09T08:08:11.633Z,52.80
2018-02-09T08:10:40.178Z,51.50
2018-02-09T08:13:09.295Z,47.70
2018-02-09T08:15:37.793Z,47.70
2018-02-09T08:18:06.185Z,46.60
2018-02-09T08:20:34.647Z,47.40
2018-02-09T08:23:03.055Z,48.30
2018-02-09T08:25:31.509Z,46.50
2018-02-09T08:27:59.989Z,46.20
2018-02-09T08:30:28.613Z,44.60
2018-02-09T08:32:57.488Z,45.50
2018-02-09T08:35:26.104Z,45.20
2018-02-09T08:37:55.208Z,43.70
2018-02-09T08:40:33.759Z,42.90
2018-02-09T08:43:02.178Z,42.90
2018-02-09T08:45:30.738Z,42.00
2018-02-09T08:47:59.202Z,41.10
2018-02-09T08:50:28.004Z,41.10
2018-02-09T08:52:56.479Z,39.70
2018-02-09T08:55:25.006Z,38.90
2018-02-09T08:57:54.359Z,38.70
2018-02-09T09:00:22.935Z,38.60
2018-02-09T09:02:51.417Z,38.50
2018-02-09T09:05:21.814Z,38.00
2018-02-09T09:07:50.327Z,37.30
2018-02-09T09:10:19.830Z,37.40
2018-02-09T09:12:48.311Z,37.70
2018-02-09T09:15:16.847Z,37.60
2018-02-09T09:17:46.016Z,37.60
2018-02-09T09:20:14.492Z,37.40
2018-02-09T09:22:42.983Z,37.50
2018-02-09T09:25:11.433Z,36.90
2018-02-09T09:27:39.914Z,37.80
2018-02-09T09:30:10.242Z,38.30
2018-02-09T09:32:39.740Z,39.40
2018-02-09T09:35:08.225Z,40.70
2018-02-09T09:37:40.653Z,41.00
2018-02-09T09:40:09.996Z,39.30
2018-02-09T09:42:38.479Z,39.20
2018-02-09T09:45:07.273Z,38.50
2018-02-09T09:47:35.848Z,36.40
2018-02-09T09:50:04.429Z,35.70
2018-02-09T09:52:46.170Z,35.90
2018-02-09T09:55:15.224Z,33.90
2018-02-09T09:57:43.630Z,33.60
2018-02-09T10:00:13.068Z,32.80
2018-02-09T10:02:42.335Z,32.70
2018-02-09T10:05:17.851Z,32.70
2018-02-09T10:07:46.275Z,32.70
2018-02-09T10:10:15.522Z,32.20
2018-02-09T10:12:44.969Z,32.20
2018-02-09T10:15:13.457Z,31.60
2018-02-09T10:17:42.027Z,33.80
2018-02-09T10:20:10.782Z,32.60
2018-02-09T10:22:39.198Z,32.60
2018-02-09T10:25:09.174Z,30.50
2018-02-09T10:27:37.553Z,30.50
2018-02-09T10:30:06.031Z,30.10
2018-02-09T10:32:34.517Z,30.80
2018-02-09T10:35:03.153Z,32.00
2018-02-09T10:37:31.679Z,30.90
2018-02-09T10:40:00.094Z,30.90
2018-02-09T10:42:28.597Z,30.50
2018-02-09T10:44:58.150Z,35.30
2018-02-09T10:47:26.711Z,35.30
2018-02-09T10:49:55.078Z,39.50
2018-02-09T10:52:23.901Z,36.50
2018-02-09T10:54:52.491Z,33.60
2018-02-09T10:57:27.001Z,34.00
2018-02-09T10:59:55.440Z,34.30
2018-02-09T11:02:25.224Z,33.70
2018-02-09T11:04:53.523Z,33.70
2018-02-09T11:07:25.278Z,33.70
2018-02-09T11:09:57.096Z,31.30
2018-02-09T11:12:27.417Z,31.30
2018-02-09T11:15:03.178Z,29.90
2018-02-09T11:17:31.589Z,27.80
2018-02-09T11:19:59.956Z,30.40
2018-02-09T11:22:28.466Z,28.40
2018-02-09T11:24:56.981Z,28.50
2018-02-09T11:27:38.675Z,31.30
2018-02-09T11:30:07.100Z,29.90
2018-02-09T11:32:35.637Z,29.20
2018-02-09T11:35:07.803Z,30.00
2018-02-09T11:37:37.507Z,29.20
2018-02-09T11:40:05.971Z,30.00
2018-02-09T11:42:34.578Z,31.30
2018-02-09T11:45:09.308Z,30.10
2018-02-09T11:47:39.878Z,31.30
2018-02-09T11:50:15.990Z,33.70
2018-02-09T11:52:44.484Z,32.10
2018-02-09T11:55:13.061Z,35.30
2018-02-09T11:57:41.536Z,33.00
2018-02-09T12:00:10.029Z,35.00
2018-02-09T12:02:38.502Z,33.20
2018-02-09T12:05:06.894Z,30.00
2018-02-09T12:07:38.686Z,30.80
2018-02-09T12:10:07.225Z,31.10
2018-02-09T12:12:35.907Z,29.70
2018-02-09T12:15:04.514Z,31.20
2018-02-09T12:17:33.073Z,33.30
2018-02-09T12:20:01.459Z,39.20
2018-02-09T12:22:30.544Z,37.60
2018-02-09T12:25:12.343Z,37.10
2018-02-09T12:27:40.859Z,37.30
2018-02-09T12:30:09.311Z,36.80
2018-02-09T12:32:38.552Z,34.60
2018-02-09T12:35:06.918Z,36.50
2018-02-09T12:37:36.840Z,37.80
2018-02-09T12:40:06.216Z,38.10
2018-02-09T12:42:37.060Z,37.90
2018-02-09T12:45:17.390Z,38.70
2018-02-09T12:47:45.876Z,38.80
2018-02-09T12:50:14.467Z,40.50
2018-02-09T12:52:42.878Z,40.50
2018-02-09T12:55:11.325Z,41.40
2018-02-09T12:57:39.792Z,41.70
2018-02-09T13:00:16.213Z,40.00
2018-02-09T13:02:44.697Z,41.00
2018-02-09T13:05:13.874Z,42.00
2018-02-09T13:07:55.948Z,41.90
2018-02-09T13:10:24.520Z,40.50
2018-02-09T13:13:04.777Z,39.00
2018-02-09T13:15:33.195Z,37.90
2018-02-09T13:18:01.734Z,39.40
2018-02-09T13:20:30.320Z,41.50
2018-02-09T13:23:10.578Z,39.40
2018-02-09T13:25:38.897Z,39.60
2018-02-09T13:28:08.818Z,38.70
2018-02-09T13:30:44.619Z,38.60
2018-02-09T13:33:31.077Z,39.30
2018-02-09T13:36:00.169Z,37.50
2018-02-09T13:38:29.838Z,37.70
2018-02-09T13:40:58.245Z,39.20
2018-02-09T13:43:26.699Z,42.30
2018-02-09T13:46:02.243Z,42.80
2018-02-09T13:48:30.764Z,43.00
2018-02-09T13:51:00.086Z,44.00
2018-02-09T13:53:40.518Z,43.10
2018-02-09T13:56:17.405Z,43.20
2018-02-09T13:58:50.662Z,45.90
2018-02-09T14:01:19.126Z,45.80
2018-02-09T14:03:48.637Z,45.80
2018-02-09T14:06:17.933Z,47.10
2018-02-09T14:08:46.575Z,49.50
2018-02-09T14:11:15.922Z,48.10
2018-02-09T14:13:46.657Z,48.10
2018-02-09T14:16:15.140Z,49.80
2018-02-09T14:18:57.784Z,50.80
2018-02-09T14:21:26.978Z,48.70
2018-02-09T14:23:55.458Z,49.50
2018-02-09T14:26:39.191Z,47.80
2018-02-09T14:29:11.642Z,49.70
2018-02-09T14:31:40.832Z,49.60
2018-02-09T14:34:09.493Z,49.50
2018-02-09T14:36:38.716Z,49.50
2018-02-09T14:39:07.303Z,49.50
2018-02-09T14:41:35.781Z,49.60
2018-02-09T14:44:04.366Z,50.50
2018-02-09T14:46:32.746Z,51.60
2018-02-09T14:49:02.174Z,49.60
2018-02-09T14:51:30.570Z,50.30
2018-02-09T14:54:03.303Z,50.40
2018-02-09T14:56:31.886Z,50.20
2018-02-09T14:59:00.469Z,50.00
2018-02-09T15:01:28.766Z,49.60
2018-02-09T15:04:00.358Z,48.10
2018-02-09T15:06:29.701Z,47.60
2018-02-09T15:08:58.802Z,47.10
2018-02-09T15:11:27.267Z,47.00
2018-02-09T15:13:55.757Z,45.60
2018-02-09T15:16:24.606Z,46.50
2018-02-09T15:18:53.233Z,47.20
2018-02-09T15:21:21.712Z,47.40
2018-02-09T15:23:50.193Z,47.80
2018-02-09T15:26:19.130Z,48.20
2018-02-09T15:28:48.401Z,48.40
2018-02-09T15:31:17.180Z,48.40
2018-02-09T15:33:45.652Z,48.70
2018-02-09T15:36:14.442Z,49.20
2018-02-09T15:38:55.471Z,48.60
2018-02-09T15:41:24.105Z,48.40
2018-02-09T15:43:52.633Z,48.20
2018-02-09T15:46:22.601Z,47.90
2018-02-09T15:48:50.976Z,47.90
2018-02-09T15:51:25.607Z,48.10
2018-02-09T15:53:54.088Z,47.20
2018-02-09T15:56:22.567Z,47.90
2018-02-09T15:58:51.249Z,47.90
2018-02-09T16:01:19.735Z,47.10
2018-02-09T16:03:48.975Z,46.40
2018-02-09T16:06:17.612Z,46.10
2018-02-09T16:08:46.094Z,45.60
2018-02-09T16:11:14.522Z,45.50
2018-02-09T16:13:48.120Z,45.00
2018-02-09T16:16:23.314Z,44.70
2018-02-09T16:18:51.843Z,44.50
2018-02-09T16:21:20.316Z,43.60
2018-02-09T16:23:49.523Z,42.90
2018-02-09T16:26:17.985Z,42.20
2018-02-09T16:28:48.617Z,42.50
2018-02-09T16:31:17.070Z,43.10
2018-02-09T16:33:45.468Z,44.90
2018-02-09T16:36:22.058Z,45.40
2018-02-09T16:38:53.192Z,46.10
2018-02-09T16:41:22.971Z,46.10
2018-02-09T16:43:51.600Z,44.70
2018-02-09T16:46:21.888Z,44.20
2018-02-09T16:48:50.426Z,45.30
2018-02-09T16:51:19.759Z,45.00
2018-02-09T16:53:50.511Z,45.10
2018-02-09T16:56:19.898Z,46.00
2018-02-09T16:58:58.812Z,46.00
2018-02-09T17:01:28.301Z,46.40
2018-02-09T17:03:57.744Z,47.90
2018-02-09T17:06:33.390Z,47.90
2018-02-09T17:09:02.847Z,48.00
2018-02-09T17:11:32.860Z,47.70
2018-02-09T17:14:01.703Z,47.70
2018-02-09T17:16:43.498Z,47.40
2018-02-09T17:19:13.983Z,48.00
2018-02-09T17:21:42.710Z,48.90
2018-02-09T17:24:11.395Z,50.60
2018-02-09T17:26:41.585Z,50.10
2018-02-09T17:29:10.299Z,50.30
2018-02-09T17:31:38.913Z,50.30
2018-02-09T17:34:07.353Z,50.80
2018-02-09T17:36:35.774Z,50.80
2018-02-09T17:39:04.224Z,51.20
2018-02-09T17:41:32.690Z,51.50
2018-02-09T17:44:01.282Z,52.20
2018-02-09T17:46:29.771Z,52.50
2018-02-09T17:49:18.818Z,52.40
2018-02-09T17:51:47.302Z,52.40
2018-02-09T17:54:15.779Z,54.20
2018-02-09T17:56:46.926Z,52.50
2018-02-09T17:59:19.809Z,52.30
2018-02-09T18:01:58.464Z,53.30
2018-02-09T18:04:27.832Z,54.30
2018-02-09T18:06:56.239Z,54.30
2018-02-09T18:09:25.098Z,54.90
2018-02-09T18:11:53.577Z,53.50
2018-02-09T18:14:22.271Z,54.80
2018-02-09T18:16:50.809Z,55.10
2018-02-09T18:19:20.184Z,56.50
2018-02-09T18:21:48.607Z,56.50
2018-02-09T18:24:17.759Z,56.70
2018-02-09T18:26:52.600Z,56.70
2018-02-09T18:29:22.198Z,57.70
2018-02-09T18:31:50.855Z,57.70
2018-02-09T18:34:20.046Z,57.80
2018-02-09T18:36:48.637Z,58.30
2018-02-09T18:39:17.115Z,60.00
2018-02-09T18:41:45.691Z,59.40
2018-02-09T18:44:22.215Z,61.10
2018-02-09T18:46:50.773Z,62.10
2018-02-09T18:49:19.146Z,62.10
2018-02-09T18:51:47.820Z,63.20
2018-02-09T18:54:16.337Z,61.70
2018-02-09T18:56:46.414Z,58.50
2018-02-09T18:59:14.890Z,58.40
2018-02-09T19:01:43.468Z,58.60
2018-02-09T19:04:14.269Z,58.90
2018-02-09T19:06:43.515Z,58.80
2018-02-09T19:09:12.133Z,58.80
2018-02-09T19:11:41.458Z,59.00
2018-02-09T19:14:10.003Z,58.90
2018-02-09T19:16:38.500Z,59.30
2018-02-09T19:19:06.975Z,59.70
2018-02-09T19:21:35.633Z,60.10
2018-02-09T19:24:04.058Z,60.20
2018-02-09T19:26:33.305Z,59.50
2018-02-09T19:29:01.933Z,59.50
2018-02-09T19:31:31.251Z,59.40
2018-02-09T19:34:13.593Z,59.40
2018-02-09T19:36:42.077Z,59.50
2018-02-09T19:39:24.511Z,59.70
2018-02-09T19:41:53.055Z,59.60
2018-02-09T19:44:21.445Z,59.90
2018-02-09T19:46:49.865Z,60.30
2018-02-09T19:49:18.296Z,60.80
2018-02-09T19:51:46.782Z,60.30
2018-02-09T19:54:18.851Z,60.80
2018-02-09T19:56:47.427Z,61.60
2018-02-09T19:59:16.133Z,62.00
2018-02-09T20:01:44.693Z,62.50
2018-02-09T20:04:13.434Z,62.80
2018-02-09T20:06:42.888Z,63.20
2018-02-09T20:09:11.747Z,63.10
2018-02-09T20:11:40.490Z,63.60
2018-02-09T20:14:09.990Z,64.30
2018-02-09T20:16:43.870Z,64.40
2018-02-09T20:19:12.661Z,64.70
2018-02-09T20:21:41.160Z,64.40
2018-02-09T20:24:10.972Z,65.00
2018-02-09T20:26:48.441Z,65.40
2018-02-09T20:29:29.164Z,65.80
2018-02-09T20:31:59.237Z,65.80
2018-02-09T20:34:33.812Z,65.80
2018-02-09T20:37:02.999Z,66.20
2018-02-09T20:39:34.593Z,66.20
2018-02-09T20:42:04.040Z,66.70
2018-02-09T20:44:41.901Z,66.80
2018-02-09T20:47:12.185Z,67.80
2018-02-09T20:49:40.840Z,66.90
2018-02-09T20:52:10.832Z,67.40
2018-02-09T20:54:53.237Z,67.60
2018-02-09T20:57:21.877Z,67.30
2018-02-09T20:59:51.023Z,68.60
2018-02-09T21:02:23.953Z,69.00
2018-02-09T21:05:04.783Z,69.00
2018-02-09T21:07:34.652Z,69.30
2018-02-09T21:10:04.112Z,70.30
2018-02-09T21:12:47.398Z,70.30
2018-02-09T21:15:16.328Z,70.00
2018-02-09T21:17:44.893Z,70.40
2018-02-09T21:20:14.487Z,69.90
2018-02-09T21:22:43.872Z,69.30
2018-02-09T21:25:15.903Z,70.80
2018-02-09T21:27:46.427Z,70.70
2018-02-09T21:30:17.156Z,70.00
2018-02-09T21:32:47.142Z,67.90
2018-02-09T21:35:15.626Z,67.80
2018-02-09T21:37:44.936Z,67.80
2018-02-09T21:40:13.493Z,68.20
2018-02-09T21:42:42.605Z,68.60
2018-02-09T21:45:12.252Z,69.00
2018-02-09T21:47:41.325Z,68.90
2018-02-09T21:50:09.893Z,67.90
2018-02-09T21:52:40.784Z,68.20
2018-02-09T21:55:24.794Z,68.10
2018-02-09T21:57:54.095Z,67.80
2018-02-09T22:00:23.381Z,69.70
2018-02-09T22:02:53.396Z,68.90
2018-02-09T22:05:36.313Z,70.60
2018-02-09T22:08:04.733Z,71.00
2018-02-09T22:10:34.292Z,70.70
2018-02-09T22:13:02.894Z,70.30
2018-02-09T22:15:34.141Z,69.70
2018-02-09T22:18:02.977Z,69.20
2018-02-09T22:20:31.826Z,70.20
2018-02-09T22:23:00.437Z,70.10
2018-02-09T22:25:28.972Z,69.20
2018-02-09T22:27:58.678Z,68.90
2018-02-09T22:30:27.157Z,68.50
2018-02-09T22:32:56.337Z,68.60
2018-02-09T22:35:24.939Z,69.70
2018-02-09T22:37:54.293Z,69.90
2018-02-09T22:40:23.407Z,72.50
2018-02-09T22:42:52.523Z,72.20
2018-02-09T22:45:21.018Z,72.10
2018-02-09T22:47:49.990Z,72.90
2018-02-09T22:50:18.355Z,73.20
2018-02-09T22:52:48.338Z,74.60
2018-02-09T22:55:17.422Z,74.60
2018-02-09T22:57:46.570Z,74.30
2018-02-09T23:00:16.823Z,74.80
2018-02-09T23:02:47.136Z,75.30
2018-02-09T23:05:16.985Z,75.20
2018-02-09T23:07:49.430Z,75.10
2018-02-09T23:10:19.348Z,74.70
2018-02-09T23:12:48.811Z,74.70
2018-02-09T23:15:18.654Z,74.60
2018-02-09T23:17:47.154Z,74.30
2018-02-09T23:20:16.795Z,74.70
2018-02-09T23:22:47.180Z,71.90
2018-02-09T23:25:16.477Z,72.30
2018-02-09T23:27:49.095Z,72.20
2018-02-09T23:30:19.451Z,70.40
2018-02-09T23:32:48.552Z,70.00
2018-02-09T23:35:16.985Z,69.80
2018-02-09T23:37:45.321Z,70.00
2018-02-09T23:40:16.748Z,70.70
2018-02-09T23:42:45.258Z,71.40
2018-02-09T23:45:13.740Z,71.50
2018-02-09T23:47:42.220Z,71.20
2018-02-09T23:50:10.662Z,70.90
2018-02-09T23:52:39.894Z,70.30
2018-02-09T23:55:08.382Z,70.10
2018-02-09T23:57:36.707Z,69.90
